Time;durP1;ratioP1;P1;durP2;ratioP2;P2;SDS_P1;SDS_P2;PMS_P1;PMS_P2;Temp;Humidity;BMP_temperature;BMP_pressure;BME280_temperature;BME280_humidity;BME280_pressure;Samples;Min_cycle;Max_cycle;Signal;HPM_P1;HPM_P2
2022/01/10 00:00:09;;;;;;;13.70;3.42;;;3.30;99.90;;;;;;6041481;23;19971;-88
2022/01/10 00:02:35;;;;;;;6.20;3.33;;;1.80;99.90;;;;;;6016915;23;20097;-87
2022/01/10 00:05:00;;;;;;;14.80;3.93;;;1.80;99.90;;;;;;6041132;23;20490;-87
2022/01/10 00:07:26;;;;;;;11.02;3.45;;;2.30;99.90;;;;;;6041556;23;20050;-87
2022/01/10 00:09:52;;;;;;;12.35;4.28;;;1.80;99.90;;;;;;6019367;23;20023;-87
2022/01/10 00:12:17;;;;;;;14.52;5.72;;;2.10;99.90;;;;;;5969536;23;20022;-87
2022/01/10 00:14:43;;;;;;;17.93;3.77;;;2.90;99.90;;;;;;6042215;23;20576;-87
2022/01/10 00:17:09;;;;;;;5.33;3.67;;;1.70;99.90;;;;;;6019248;23;20018;-87
2022/01/10 00:19:35;;;;;;;8.40;3.78;;;2.60;99.90;;;;;;5994997;23;20075;-87
2022/01/10 00:22:00;;;;;;;14.68;4.60;;;2.40;99.90;;;;;;6019510;23;20054;-87
2022/01/10 00:24:26;;;;;;;20.65;4.60;;;1.70;99.90;;;;;;6042397;23;20451;-88
2022/01/10 00:26:52;;;;;;;8.75;4.82;;;1.70;99.90;;;;;;6042636;23;20022;-87
2022/01/10 00:29:18;;;;;;;16.07;3.30;;;1.70;99.90;;;;;;5996020;23;20069;-87
2022/01/10 00:31:43;;;;;;;13.50;3.57;;;2.40;99.90;;;;;;5994696;23;20050;-87
2022/01/10 00:34:10;;;;;;;11.87;3.43;;;1.50;99.90;;;;;;5996054;23;20023;-87
2022/01/10 00:36:36;;;;;;;10.27;4.15;;;3.00;99.90;;;;;;5995080;23;20018;-87
2022/01/10 00:39:03;;;;;;;7.00;4.00;;;2.80;99.90;;;;;;6043295;23;20105;-87
2022/01/10 00:41:29;;;;;;;11.82;3.63;;;1.50;99.90;;;;;;6042003;23;20026;-87
2022/01/10 00:43:54;;;;;;;8.70;4.00;;;1.50;99.90;;;;;;6042787;23;20018;-87
2022/01/10 00:46:21;;;;;;;17.52;4.60;;;2.40;99.90;;;;;;6042934;23;20086;-87
2022/01/10 00:48:48;;;;;;;18.25;4.43;;;1.40;99.90;;;;;;6042187;23;20054;-87
2022/01/10 00:51:13;;;;;;;15.13;4.10;;;1.50;99.90;;;;;;6018976;23;20423;-87
2022/01/10 00:53:39;;;;;;;4.10;2.80;;;2.60;99.90;;;;;;6041930;23;20050;-87
2022/01/10 00:56:08;;;;;;;10.50;3.47;;;1.40;99.90;;;;;;6019172;23;20023;-87
2022/01/10 00:58:36;;;;;;;8.13;4.68;;;2.90;99.90;;;;;;6018292;23;20023;-87
2022/01/10 01:01:05;;;;;;;6.70;3.70;;;2.80;99.90;;;;;;6019106;23;20448;-87
2022/01/10 01:03:31;;;;;;;7.28;2.83;;;1.30;99.90;;;;;;6018226;23;20020;-87
2022/01/10 01:05:56;;;;;;;6.47;3.93;;;1.40;99.90;;;;;;6018654;23;20032;-87
2022/01/10 01:08:22;;;;;;;5.75;3.97;;;1.20;99.90;;;;;;6042599;23;20026;-87
2022/01/10 01:26:25;;;;;;;10.65;4.18;;;1.40;99.90;;;;;;6042587;23;20325;-87
2022/01/10 01:28:51;;;;;;;6.40;3.33;;;1.00;99.90;;;;;;6017223;23;20023;-87
2022/01/10 01:31:17;;;;;;;5.32;3.67;;;0.90;99.90;;;;;;6017881;23;20019;-87
2022/01/10 01:33:42;;;;;;;12.77;3.93;;;0.90;99.90;;;;;;5994307;23;20043;-87
2022/01/10 01:36:09;;;;;;;5.80;3.83;;;2.00;99.90;;;;;;6018168;23;20023;-87
2022/01/10 01:38:37;;;;;;;20.27;4.82;;;0.90;99.90;;;;;;6042030;23;20046;-87
2022/01/10 01:41:20;;;;;;;10.25;4.07;;;2.10;99.90;;;;;;6042095;23;20490;-87
2022/01/10 01:43:47;;;;;;;7.18;4.22;;;0.90;99.90;;;;;;6018202;23;20025;-87
2022/01/10 01:46:13;;;;;;;;;;;0.80;99.90;;;;;;6042426;23;20078;-87
2022/01/10 01:48:39;;;;;;;4.90;3.47;;;2.20;99.90;;;;;;6017895;23;19925;-87
2022/01/10 01:51:05;;;;;;;9.20;3.73;;;2.30;99.90;;;;;;6017835;23;20464;-87
2022/01/10 01:53:31;;;;;;;6.75;3.50;;;2.20;99.90;;;;;;6018871;23;20259;-87
2022/01/10 01:55:58;;;;;;;9.70;3.70;;;0.90;99.90;;;;;;6017926;23;20023;-88
2022/01/10 01:58:24;;;;;;;;;;;0.90;99.90;;;;;;6042492;23;20026;-87
2022/01/10 02:00:51;;;;;;;4.55;3.10;;;0.80;99.90;;;;;;6065386;23;19993;-87
2022/01/10 02:03:16;;;;;;;7.25;3.25;;;2.30;99.90;;;;;;6018498;23;20015;-88
2022/01/10 02:05:42;;;;;;;6.63;4.72;;;1.00;99.90;;;;;;5993838;23;20470;-88
2022/01/10 02:08:10;;;;;;;9.73;3.17;;;0.80;99.90;;;;;;5994993;23;20019;-87
2022/01/10 02:10:36;;;;;;;19.25;4.30;;;1.30;99.90;;;;;;6018199;23;20472;-87
2022/01/10 02:13:02;;;;;;;6.15;3.63;;;0.50;99.90;;;;;;6038055;23;20027;-87
2022/01/10 02:15:57;;;;;;;10.05;5.05;;;1.30;99.90;;;;;;6041977;23;20106;-87
2022/01/10 02:18:24;;;;;;;10.50;4.40;;;0.70;99.90;;;;;;6018092;23;20089;-87
2022/01/10 02:20:50;;;;;;;8.00;4.55;;;1.30;99.90;;;;;;6017946;23;20019;-88
2022/01/10 02:23:16;;;;;;;8.48;4.90;;;0.70;99.90;;;;;;6042103;23;20019;-88
2022/01/10 02:25:44;;;;;;;12.95;4.25;;;0.60;99.90;;;;;;6017908;23;20400;-87
2022/01/10 02:28:10;;;;;;;10.95;3.70;;;0.60;99.90;;;;;;6017667;23;20023;-88
2022/01/10 02:30:36;;;;;;;11.93;3.90;;;0.60;99.90;;;;;;6018070;23;20015;-88
2022/01/10 02:33:04;;;;;;;11.13;4.20;;;0.50;99.90;;;;;;6017254;23;20255;-87
2022/01/10 02:35:35;;;;;;;13.30;4.63;;;1.30;99.90;;;;;;6041802;23;20014;-88
2022/01/10 02:38:01;;;;;;;16.10;3.53;;;-0.20;99.90;;;;;;6040936;23;20440;-87
2022/01/10 02:40:30;;;;;;;7.95;3.78;;;0.50;99.90;;;;;;6018093;23;20106;-87
2022/01/10 02:42:56;;;;;;;11.98;4.88;;;1.80;99.90;;;;;;5994496;23;20030;-87
2022/01/10 02:45:23;;;;;;;16.17;5.13;;;0.50;99.90;;;;;;6017929;23;20023;-88
2022/01/10 02:47:49;;;;;;;14.13;3.90;;;1.00;99.90;;;;;;6041236;23;20050;-89
2022/01/10 02:50:19;;;;;;;12.40;4.43;;;0.40;99.90;;;;;;6018760;23;20113;-89
2022/01/10 02:52:45;;;;;;;7.25;4.25;;;0.40;99.90;;;;;;6065546;23;20026;-90
2022/01/10 02:55:14;;;;;;;14.27;4.28;;;1.10;99.90;;;;;;5996209;23;20082;-89
2022/01/10 02:57:41;;;;;;;32.85;5.82;;;0.30;99.90;;;;;;6018401;23;20019;-89
2022/01/10 03:00:16;;;;;;;13.95;5.63;;;1.20;99.90;;;;;;6018241;23;20532;-89
2022/01/10 03:02:44;;;;;;;10.90;3.95;;;0.40;99.90;;;;;;6042391;23;20393;-89
2022/01/10 03:05:11;;;;;;;17.45;4.38;;;0.90;99.90;;;;;;6017954;23;20372;-90
2022/01/10 03:07:38;;;;;;;18.45;4.75;;;0.30;99.90;;;;;;6018610;23;20400;-89
2022/01/10 03:10:05;;;;;;;10.95;5.15;;;1.90;99.90;;;;;;6041449;23;20037;-89
2022/01/10 03:12:34;;;;;;;;;;;0.30;99.90;;;;;;6018628;23;20101;-89
2022/01/10 03:15:04;;;;;;;3.95;3.40;;;0.90;99.90;;;;;;6041416;23;19988;-87
2022/01/10 03:17:30;;;;;;;7.72;3.45;;;0.20;99.90;;;;;;6018056;23;20054;-87
2022/01/10 03:19:56;;;;;;;7.87;4.33;;;0.90;99.90;;;;;;6041451;23;20026;-87
2022/01/10 03:22:22;;;;;;;8.32;4.15;;;1.40;99.90;;;;;;6041996;23;20018;-87
2022/01/10 03:24:48;;;;;;;12.13;3.80;;;1.60;99.90;;;;;;6042147;23;20065;-87
2022/01/10 03:27:14;;;;;;;12.80;4.37;;;1.70;99.90;;;;;;5994423;23;20023;-87
2022/01/10 03:29:40;;;;;;;8.10;4.03;;;0.10;99.90;;;;;;6018254;23;20023;-87
2022/01/10 03:32:07;;;;;;;10.77;5.80;;;1.30;99.90;;;;;;5970864;23;20417;-87
2022/01/10 03:34:33;;;;;;;7.55;4.25;;;0.10;99.90;;;;;;5995734;23;20113;-87
2022/01/10 03:36:59;;;;;;;10.43;4.53;;;0.00;99.90;;;;;;5994313;23;20058;-87
2022/01/10 03:39:27;;;;;;;12.93;4.55;;;0.00;99.90;;;;;;6018703;23;20019;-87
2022/01/10 03:41:56;;;;;;;13.90;4.18;;;0.10;99.90;;;;;;6020612;23;20456;-88
2022/01/10 03:44:23;;;;;;;13.32;4.38;;;0.10;99.90;;;;;;5996853;23;20026;-87
2022/01/10 03:46:49;;;;;;;6.72;3.95;;;0.00;99.90;;;;;;6020465;23;20019;-87
2022/01/10 03:49:15;;;;;;;6.53;3.85;;;0.70;99.90;;;;;;5996328;23;20640;-87
2022/01/10 03:51:41;;;;;;;12.37;5.23;;;1.30;99.90;;;;;;6019733;23;20082;-87
2022/01/10 03:54:07;;;;;;;9.57;6.05;;;-0.10;99.90;;;;;;6019551;23;20097;-87
2022/01/10 03:56:33;;;;;;;6.97;4.77;;;0.00;99.90;;;;;;5996701;23;20514;-87
2022/01/10 03:59:06;;;;;;;12.03;4.77;;;1.40;99.90;;;;;;6019318;23;20018;-87
2022/01/10 04:01:32;;;;;;;11.50;5.68;;;1.40;99.90;;;;;;6044107;23;20051;-88
2022/01/10 04:03:58;;;;;;;13.80;5.27;;;0.00;99.90;;;;;;5995623;23;20444;-90
2022/01/10 04:06:24;;;;;;;21.38;6.80;;;-0.80;99.90;;;;;;6020009;23;20074;-89
2022/01/10 04:08:50;;;;;;;21.40;6.17;;;1.40;99.90;;;;;;5996684;23;20018;-89
2022/01/10 04:11:15;;;;;;;11.95;4.88;;;0.00;99.90;;;;;;5995427;23;20025;-89
2022/01/10 04:13:41;;;;;;;13.13;4.83;;;0.90;99.90;;;;;;6019670;23;20091;-89
2022/01/10 04:16:10;;;;;;;13.57;6.05;;;-0.10;99.90;;;;;;6019305;23;20026;-89
2022/01/10 04:18:37;;;;;;;10.50;5.88;;;0.60;99.90;;;;;;6043464;23;20097;-89
2022/01/10 04:21:03;;;;;;;9.15;5.10;;;-0.10;99.90;;;;;;6042862;23;20058;-90
2022/01/10 04:23:30;;;;;;;8.67;5.27;;;1.40;99.90;;;;;;6019631;23;20029;-91
2022/01/10 04:25:56;;;;;;;10.23;4.28;;;-0.10;99.90;;;;;;5973408;23;20026;-89
2022/01/10 04:28:25;;;;;;;10.03;4.23;;;1.00;99.90;;;;;;6019568;23;20345;-89
2022/01/10 04:30:51;;;;;;;23.85;7.65;;;-0.10;99.90;;;;;;6019390;23;20102;-89
2022/01/10 04:33:18;;;;;;;17.07;5.43;;;0.00;99.90;;;;;;5995893;23;20026;-89
2022/01/10 04:35:45;;;;;;;13.25;6.18;;;0.80;99.90;;;;;;6019717;23;20348;-89
2022/01/10 04:38:11;;;;;;;12.40;7.07;;;-0.20;99.90;;;;;;5995779;23;20054;-89
2022/01/10 04:40:38;;;;;;;20.70;5.05;;;1.20;99.90;;;;;;6019850;23;20038;-89
2022/01/10 04:43:04;;;;;;;15.48;6.60;;;0.80;99.90;;;;;;6019504;23;20030;-90
2022/01/10 04:45:30;;;;;;;8.30;4.93;;;-0.20;99.90;;;;;;5996470;23;20336;-89
2022/01/10 04:47:58;;;;;;;11.55;6.30;;;-0.40;99.90;;;;;;6019609;23;20023;-89
2022/01/10 04:51:10;;;;;;;10.07;5.03;;;1.10;99.90;;;;;;6042295;23;20015;-89
2022/01/10 04:53:13;;;;;;;12.00;6.32;;;-0.10;99.90;;;;;;6041373;23;20022;-89
2022/01/10 04:55:41;;;;;;;15.07;5.97;;;-0.30;99.90;;;;;;6043231;23;20015;-89
2022/01/10 04:58:07;;;;;;;12.27;6.07;;;0.90;99.90;;;;;;6019060;23;20023;-89
2022/01/10 05:00:32;;;;;;;9.03;5.37;;;1.10;99.90;;;;;;5972896;23;20357;-89
2022/01/10 05:02:58;;;;;;;18.00;8.07;;;0.90;99.90;;;;;;6019189;23;20019;-89
2022/01/10 05:05:24;;;;;;;15.35;6.78;;;-0.20;99.90;;;;;;6018929;23;20029;-89
2022/01/10 05:07:56;;;;;;;10.43;7.00;;;-0.30;99.90;;;;;;6019209;23;20048;-89
2022/01/10 05:10:22;;;;;;;11.70;7.20;;;-0.30;99.90;;;;;;5996772;23;20019;-90
2022/01/10 05:12:48;;;;;;;19.87;7.57;;;0.50;99.90;;;;;;5994967;23;20467;-89
2022/01/10 05:15:13;;;;;;;11.05;6.03;;;0.10;99.90;;;;;;6018984;23;20031;-89
2022/01/10 05:17:39;;;;;;;24.03;9.37;;;-0.30;99.90;;;;;;6018994;23;20015;-89
2022/01/10 05:20:11;;;;;;;17.90;7.83;;;0.20;99.90;;;;;;6042551;23;20348;-89
2022/01/10 05:22:40;;;;;;;14.05;7.95;;;-0.20;99.90;;;;;;6019333;23;20022;-89
2022/01/10 05:25:06;;;;;;;19.77;6.30;;;1.20;99.90;;;;;;6019349;23;20448;-89
2022/01/10 05:27:35;;;;;;;10.80;7.53;;;-0.50;99.90;;;;;;6018882;23;20029;-89
2022/01/10 05:30:02;;;;;;;20.65;9.25;;;-0.40;99.90;;;;;;5973367;23;20022;-89
2022/01/10 05:32:28;;;;;;;29.25;8.50;;;1.00;99.90;;;;;;6042290;23;20015;-90
2022/01/10 05:34:53;;;;;;;17.47;9.23;;;1.30;99.90;;;;;;6019312;23;20027;-89
2022/01/10 05:37:21;;;;;;;20.77;7.37;;;0.80;99.90;;;;;;6018739;23;20097;-89
2022/01/10 05:39:47;;;;;;;14.50;7.53;;;0.80;99.90;;;;;;6019340;23;20029;-89
2022/01/10 05:42:14;;;;;;;15.60;7.30;;;0.10;99.90;;;;;;5995334;23;20019;-89
2022/01/10 05:44:40;;;;;;;;;;;0.60;99.90;;;;;;6019501;23;20022;-89
2022/01/10 05:47:06;;;;;;;14.75;6.70;;;0.70;99.90;;;;;;6019048;23;19917;-89
2022/01/10 05:49:34;;;;;;;13.60;7.80;;;-0.30;99.90;;;;;;6018123;23;20076;-89
2022/01/10 05:52:01;;;;;;;18.67;8.73;;;0.90;99.90;;;;;;6019105;23;20026;-89
2022/01/10 05:54:27;;;;;;;22.38;8.52;;;-0.30;99.90;;;;;;6018258;23;20018;-89
2022/01/10 05:56:53;;;;;;;22.53;7.60;;;1.00;99.90;;;;;;6019156;23;20082;-89
2022/01/10 05:59:22;;;;;;;26.45;10.68;;;-0.30;99.90;;;;;;6018265;23;20054;-89
2022/01/10 06:01:48;;;;;;;13.70;7.45;;;-0.40;99.90;;;;;;5996167;23;20019;-89
2022/01/10 06:04:16;;;;;;;19.00;9.13;;;1.20;99.90;;;;;;6018724;23;20022;-91
2022/01/10 06:06:42;;;;;;;23.33;10.23;;;-0.50;99.90;;;;;;6019686;23;20019;-89
2022/01/10 06:09:08;;;;;;;21.20;8.47;;;-0.30;99.90;;;;;;5995591;23;20026;-89
2022/01/10 06:11:34;;;;;;;19.27;9.07;;;-0.40;99.90;;;;;;6018355;23;20047;-89
2022/01/10 06:14:00;;;;;;;21.40;8.85;;;0.60;99.90;;;;;;5994752;23;20033;-89
2022/01/10 06:16:28;;;;;;;29.53;10.23;;;-0.40;99.90;;;;;;6041646;23;20022;-89
2022/01/10 06:18:54;;;;;;;13.90;9.00;;;0.80;99.90;;;;;;5972413;23;20018;-89
2022/01/10 06:21:23;;;;;;;13.37;9.03;;;-0.40;99.90;;;;;;6018438;23;20070;-90
2022/01/10 06:23:49;;;;;;;14.25;8.02;;;-0.50;99.90;;;;;;6019574;23;20019;-89
2022/01/10 06:26:20;;;;;;;14.70;9.17;;;1.00;99.90;;;;;;6018310;23;20022;-89
2022/01/10 06:28:49;;;;;;;16.75;9.82;;;1.00;99.90;;;;;;6018458;23;20023;-89
2022/01/10 06:31:21;;;;;;;14.57;7.45;;;0.80;99.90;;;;;;6018695;23;20021;-89
2022/01/10 06:33:47;;;;;;;11.60;8.07;;;0.90;99.90;;;;;;5996826;23;20023;-89
2022/01/10 06:36:13;;;;;;;11.93;7.30;;;0.70;99.90;;;;;;6041879;23;20019;-89
2022/01/10 06:38:39;;;;;;;12.50;8.05;;;-0.80;99.90;;;;;;6018129;23;20019;-89
2022/01/10 06:41:04;;;;;;;24.17;8.63;;;0.20;99.90;;;;;;6018778;23;20023;-89
2022/01/10 06:43:31;;;;;;;13.02;7.63;;;-0.50;99.90;;;;;;5971727;23;20070;-89
2022/01/10 06:45:57;;;;;;;20.88;9.70;;;-0.50;99.90;;;;;;6018661;23;20110;-89
2022/01/10 06:48:23;;;;;;;11.07;6.45;;;1.00;99.90;;;;;;6018244;23;20026;-89
2022/01/10 06:50:49;;;;;;;15.00;6.93;;;0.50;99.90;;;;;;6018604;23;20097;-89
2022/01/10 06:53:16;;;;;;;16.85;8.90;;;0.00;99.90;;;;;;6018684;23;20030;-89
2022/01/10 06:55:42;;;;;;;12.95;6.18;;;-0.60;99.90;;;;;;5994752;23;20224;-89
2022/01/10 06:58:08;;;;;;;11.27;7.13;;;0.10;99.90;;;;;;6042302;23;20022;-89
2022/01/10 07:00:37;;;;;;;14.85;8.05;;;-0.60;99.90;;;;;;6018071;23;20448;-89
2022/01/10 07:03:05;;;;;;;18.77;7.40;;;-0.70;99.90;;;;;;6017933;23;20023;-89
2022/01/10 07:05:31;;;;;;;16.83;7.00;;;0.40;99.90;;;;;;5995215;23;20404;-89
2022/01/10 07:07:59;;;;;;;21.93;7.17;;;-0.10;99.90;;;;;;6041782;23;20046;-89
2022/01/10 07:10:37;;;;;;;11.52;8.40;;;-0.80;99.90;;;;;;5142677;27;1358828;-87
2022/01/10 07:13:27;;;;;;;17.15;7.25;;;0.50;99.90;;;;;;5119713;27;20039;-90
2022/01/10 07:15:57;;;;;;;13.40;7.35;;;-0.80;99.90;;;;;;5140310;27;20050;-90
2022/01/10 07:18:35;;;;;;;12.13;6.57;;;-1.60;99.90;;;;;;5123116;27;20414;-90
2022/01/10 07:21:04;;;;;;;15.63;7.10;;;-1.00;99.90;;;;;;5135205;27;20519;-86
2022/01/10 07:23:29;;;;;;;11.48;7.65;;;-0.40;99.90;;;;;;5136340;27;20060;-85
2022/01/10 07:26:03;;;;;;;11.60;8.07;;;-0.10;99.90;;;;;;5154119;27;20072;-88
2022/01/10 07:28:40;;;;;;;12.18;7.30;;;-0.90;99.90;;;;;;5136582;27;20047;-88
2022/01/10 07:31:07;;;;;;;14.82;7.78;;;-0.20;99.90;;;;;;5117436;27;20043;-90
2022/01/10 07:33:34;;;;;;;17.25;7.22;;;0.50;99.90;;;;;;5130646;27;20035;-89
2022/01/10 07:36:01;;;;;;;12.95;8.27;;;-1.80;99.90;;;;;;5135890;27;20444;-89
2022/01/10 07:38:35;;;;;;;11.75;6.40;;;-1.00;99.90;;;;;;5126864;27;20125;-89
2022/01/10 07:41:04;;;;;;;16.95;7.72;;;-0.90;99.90;;;;;;5134195;27;20069;-89
2022/01/10 07:43:30;;;;;;;13.68;7.50;;;-0.70;99.90;;;;;;5136209;27;20130;-90
2022/01/10 07:45:56;;;;;;;10.83;6.47;;;0.00;99.90;;;;;;5154562;27;20047;-88
2022/01/10 07:48:23;;;;;;;14.18;7.65;;;-0.90;99.90;;;;;;5136414;27;20042;-93
2022/01/10 07:50:51;;;;;;;14.95;8.25;;;-1.10;99.90;;;;;;5134499;27;20180;-89
2022/01/10 07:53:17;;;;;;;13.52;8.68;;;-0.90;99.90;;;;;;5134625;27;20047;-89
2022/01/10 07:55:45;;;;;;;9.87;5.90;;;0.20;99.90;;;;;;5105864;27;20099;-89
2022/01/10 07:58:14;;;;;;;15.48;8.20;;;-1.10;99.90;;;;;;5134833;27;20142;-89
2022/01/10 08:00:40;;;;;;;9.85;6.43;;;-1.10;99.90;;;;;;5134596;27;20035;-89
2022/01/10 08:03:08;;;;;;;13.90;8.00;;;0.00;99.90;;;;;;5118472;27;20544;-89
2022/01/10 08:05:34;;;;;;;16.02;8.52;;;-1.10;99.90;;;;;;5135010;27;20050;-90
2022/01/10 08:08:05;;;;;;;10.17;6.87;;;-1.10;99.90;;;;;;5135433;27;20396;-90
2022/01/10 08:10:34;;;;;;;8.20;5.55;;;-0.30;99.90;;;;;;5112415;27;20424;-91
2022/01/10 08:12:59;;;;;;;11.77;6.55;;;0.30;99.90;;;;;;5135332;27;20132;-90
2022/01/10 08:15:30;;;;;;;16.10;9.27;;;0.10;99.90;;;;;;5131913;27;20129;-89
2022/01/10 08:17:57;;;;;;;8.52;5.82;;;-1.10;99.90;;;;;;5120480;27;20079;-91
2022/01/10 08:20:26;;;;;;;;;;;0.40;99.90;;;;;;5130904;27;20066;-89
2022/01/10 08:22:52;;;;;;;9.30;6.88;;;-1.80;99.90;;;;;;5121815;27;19923;-89
2022/01/10 08:25:18;;;;;;;9.98;6.65;;;0.20;99.90;;;;;;5121749;27;20066;-90
2022/01/10 08:27:44;;;;;;;11.35;7.35;;;0.00;99.90;;;;;;5120473;27;20441;-90
2022/01/10 08:30:19;;;;;;;17.45;8.52;;;0.10;99.90;;;;;;5104828;27;20035;-90
2022/01/10 08:32:50;;;;;;;10.98;7.72;;;-0.70;99.90;;;;;;5137349;27;20050;-91
2022/01/10 08:35:18;;;;;;;10.07;6.20;;;0.90;99.90;;;;;;5122297;27;20423;-92
2022/01/10 08:37:44;;;;;;;10.93;7.30;;;-0.50;99.90;;;;;;5121213;27;20205;-91
2022/01/10 08:40:14;;;;;;;12.73;7.73;;;-0.40;99.90;;;;;;5118098;27;20577;-91
2022/01/10 08:42:41;;;;;;;13.35;6.93;;;-0.20;99.90;;;;;;5120482;27;20046;-90
2022/01/10 08:45:10;;;;;;;12.02;8.15;;;0.90;99.90;;;;;;5104259;27;20050;-85
2022/01/10 08:47:39;;;;;;;20.73;8.57;;;0.10;99.90;;;;;;5121228;27;20047;-89
2022/01/10 08:50:08;;;;;;;21.25;9.57;;;0.30;99.90;;;;;;5118264;27;20066;-88
2022/01/10 08:52:34;;;;;;;18.15;9.75;;;0.40;99.90;;;;;;5120738;27;20038;-89
2022/01/10 08:55:05;;;;;;;22.88;9.35;;;0.30;99.90;;;;;;5117826;27;20050;-88
2022/01/10 08:57:31;;;;;;;29.73;11.57;;;0.30;99.90;;;;;;5104140;27;20065;-88
2022/01/10 08:59:57;;;;;;;20.63;12.00;;;0.30;99.90;;;;;;5120316;27;20467;-88
2022/01/10 09:02:23;;;;;;;73.10;27.50;;;1.50;99.90;;;;;;5121259;27;20039;-90
2022/01/10 09:04:49;;;;;;;16.73;12.05;;;0.60;99.90;;;;;;5120675;27;20042;-91
2022/01/10 09:07:15;;;;;;;62.83;19.45;;;2.10;99.90;;;;;;5102232;27;20040;-92
2022/01/10 09:09:47;;;;;;;124.65;36.85;;;1.00;99.90;;;;;;5083780;27;20485;-92
2022/01/10 09:12:19;;;;;;;59.90;21.05;;;1.10;99.90;;;;;;5100427;27;20051;-91
2022/01/10 09:14:51;;;;;;;82.15;27.92;;;0.60;99.90;;;;;;5129576;27;20047;-92
2022/01/10 09:17:19;;;;;;;26.25;13.32;;;0.70;99.90;;;;;;5120579;27;20096;-93
2022/01/10 09:19:52;;;;;;;52.08;21.42;;;1.70;99.90;;;;;;5130248;27;20043;-90
2022/01/10 09:22:25;;;;;;;33.42;16.38;;;2.80;99.90;;;;;;5098300;27;20050;-91
2022/01/10 09:24:56;;;;;;;30.75;15.60;;;2.00;99.90;;;;;;5103592;27;20046;-91
2022/01/10 09:27:42;;;;;;;44.75;19.58;;;2.10;99.90;;;;;;5112559;27;20072;-93
2022/01/10 09:30:14;;;;;;;25.08;16.42;;;3.40;99.90;;;;;;5098734;27;20096;-91
2022/01/10 09:32:48;;;;;;;19.67;14.43;;;2.30;99.90;;;;;;5098082;27;20090;-92
2022/01/10 09:35:16;;;;;;;31.95;15.85;;;2.40;99.90;;;;;;5113746;27;20051;-92
2022/01/10 09:37:48;;;;;;;29.23;15.15;;;1.60;99.90;;;;;;5099239;27;20096;-92
2022/01/10 09:40:18;;;;;;;30.02;17.00;;;2.80;99.90;;;;;;5127346;27;20046;-90
2022/01/10 09:43:01;;;;;;;27.63;16.08;;;2.70;99.90;;;;;;5103277;27;20444;-90
2022/01/10 09:45:29;;;;;;;32.90;15.40;;;2.90;99.90;;;;;;5115858;27;20107;-92
2022/01/10 09:48:01;;;;;;;26.63;16.35;;;3.70;99.90;;;;;;5081733;27;20039;-89
2022/01/10 09:50:27;;;;;;;47.95;19.27;;;4.50;99.90;;;;;;5122285;27;20039;-93
2022/01/10 09:52:53;;;;;;;29.70;18.10;;;3.30;99.90;;;;;;5114903;27;20046;-95
2022/01/10 09:55:19;;;;;;;24.03;17.47;;;4.10;99.90;;;;;;5128663;27;20136;-93
2022/01/10 09:58:03;;;;;;;27.07;15.23;;;3.40;99.90;;;;;;5105344;27;20489;-92
2022/01/10 10:00:36;;;;;;;23.50;15.30;;;3.70;99.90;;;;;;5099427;27;20058;-94
2022/01/10 10:03:05;;;;;;;21.55;14.63;;;3.10;99.90;;;;;;5085256;27;20046;-93
2022/01/10 10:05:31;;;;;;;23.23;15.45;;;4.10;99.90;;;;;;5098414;27;20054;-93
2022/01/10 10:07:57;;;;;;;31.40;15.70;;;4.30;99.90;;;;;;5135919;27;20043;-93
2022/01/10 10:10:34;;;;;;;23.45;17.95;;;5.10;99.90;;;;;;5114791;27;20055;-91
2022/01/10 10:13:03;;;;;;;21.88;14.23;;;4.80;99.90;;;;;;5111732;28;20390;-92
2022/01/10 10:15:39;;;;;;;21.87;14.37;;;5.10;99.90;;;;;;5114475;27;20051;-93
2022/01/10 10:18:26;;;;;;;25.73;15.93;;;4.30;99.90;;;;;;5098233;27;20050;-92
2022/01/10 10:20:53;;;;;;;24.73;15.63;;;4.50;99.90;;;;;;5114979;27;20051;-91
2022/01/10 10:23:21;;;;;;;18.48;13.73;;;5.50;99.90;;;;;;5115631;27;20127;-92
2022/01/10 10:25:54;;;;;;;17.60;12.32;;;6.00;99.90;;;;;;5134879;27;20050;-92
2022/01/10 10:28:21;;;;;;;16.05;12.80;;;6.10;99.90;;;;;;5154429;27;20035;-92
2022/01/10 10:30:55;;;;;;;17.08;12.60;;;6.30;99.90;;;;;;5110744;28;20042;-93
2022/01/10 10:33:45;;;;;;;23.27;12.48;;;6.40;99.90;;;;;;5101888;27;20082;-92
2022/01/10 10:36:13;;;;;;;18.95;11.80;;;6.20;99.90;;;;;;5093503;28;20497;-92
2022/01/10 10:38:53;;;;;;;23.63;12.20;;;6.00;99.90;;;;;;5094460;28;20043;-93
2022/01/10 10:41:19;;;;;;;23.67;11.18;;;6.80;99.90;;;;;;5093329;27;20051;-90
2022/01/10 10:43:45;;;;;;;15.73;10.70;;;6.90;99.90;;;;;;5126904;27;20045;-92
2022/01/10 10:46:16;;;;;;;15.73;11.07;;;7.10;99.90;;;;;;5114228;27;20047;-91
2022/01/10 10:48:49;;;;;;;15.05;10.93;;;7.10;99.90;;;;;;5113827;27;20083;-90
2022/01/10 10:51:15;;;;;;;17.73;11.77;;;7.20;99.90;;;;;;5129439;27;20046;-90
2022/01/10 10:53:44;;;;;;;15.93;12.02;;;7.40;99.90;;;;;;5114986;27;20050;-95
2022/01/10 10:56:15;;;;;;;22.05;10.98;;;7.40;99.90;;;;;;5114836;27;20072;-94
2022/01/10 10:58:43;;;;;;;17.60;11.90;;;7.60;99.90;;;;;;5109806;27;20035;-94
2022/01/10 11:01:11;;;;;;;22.00;11.88;;;7.90;99.90;;;;;;5116729;28;20078;-95
2022/01/10 11:03:39;;;;;;;20.20;11.77;;;8.00;99.90;;;;;;5115137;27;20043;-91
2022/01/10 11:06:07;;;;;;;15.27;11.65;;;8.10;99.90;;;;;;5095863;28;20051;-95
2022/01/10 11:08:39;;;;;;;16.13;10.20;;;8.20;99.90;;;;;;5114164;28;20103;-96
2022/01/10 11:11:08;;;;;;;16.15;11.77;;;7.60;99.90;;;;;;5093139;28;20070;-92
2022/01/10 11:13:39;;;;;;;15.63;10.95;;;8.40;99.90;;;;;;5093567;28;20047;-95
2022/01/10 11:16:05;;;;;;;11.85;10.43;;;8.40;99.90;;;;;;5074315;28;20051;-93
2022/01/10 11:18:40;;;;;;;17.23;9.85;;;8.80;99.90;;;;;;5076508;28;20091;-93
2022/01/10 11:21:06;;;;;;;16.05;10.45;;;8.90;99.90;;;;;;5107658;28;20050;-91
2022/01/10 11:23:38;;;;;;;17.95;10.45;;;9.00;99.90;;;;;;5092060;28;20040;-93
2022/01/10 11:26:07;;;;;;;13.80;9.95;;;9.20;99.90;;;;;;5081085;28;20122;-90
2022/01/10 11:28:33;;;;;;;12.05;9.05;;;9.10;99.90;;;;;;5073392;28;20048;-91
2022/01/10 11:31:02;;;;;;;15.20;9.13;;;9.20;99.90;;;;;;5073737;28;20051;-91
2022/01/10 11:33:36;;;;;;;12.35;9.30;;;9.30;99.90;;;;;;5109217;28;20051;-92
2022/01/10 11:36:12;;;;;;;15.82;9.40;;;9.50;99.90;;;;;;5093908;28;20048;-91
2022/01/10 11:38:49;;;;;;;15.10;9.43;;;9.30;99.90;;;;;;5078317;28;20160;-92
2022/01/10 11:41:30;;;;;;;13.67;8.63;;;9.40;99.90;;;;;;5092255;28;20039;-91
2022/01/10 11:44:12;;;;;;;15.55;8.15;;;8.60;99.90;;;;;;5093318;28;20048;-93
2022/01/10 11:46:41;;;;;;;13.90;8.32;;;9.80;99.90;;;;;;5093383;28;20047;-93
2022/01/10 11:49:10;;;;;;;14.75;7.85;;;9.70;99.90;;;;;;5109699;28;20073;-91
2022/01/10 11:51:36;;;;;;;12.90;8.10;;;9.70;99.90;;;;;;5105887;28;20142;-92
2022/01/10 11:54:12;;;;;;;;;;;9.70;99.90;;;;;;5093527;28;20083;-90
2022/01/10 11:56:45;;;;;;;10.55;7.40;;;9.70;99.90;;;;;;5096032;28;19919;-93
2022/01/10 11:59:23;;;;;;;10.93;7.82;;;9.80;99.90;;;;;;5096741;28;20051;-93
2022/01/10 12:01:56;;;;;;;9.82;7.18;;;9.80;99.90;;;;;;5089850;28;20063;-93
2022/01/10 12:04:22;;;;;;;9.15;7.28;;;9.90;99.90;;;;;;5092987;28;20051;-93
2022/01/10 12:06:57;;;;;;;9.73;6.32;;;9.80;99.90;;;;;;5052438;28;20040;-94
2022/01/10 12:09:24;;;;;;;10.52;6.10;;;8.90;99.90;;;;;;5100656;27;20043;-91
2022/01/10 12:11:52;;;;;;;11.90;6.68;;;9.80;99.90;;;;;;5120982;27;20050;-91
2022/01/10 12:14:21;;;;;;;12.18;5.97;;;10.00;99.90;;;;;;5102161;27;20099;-91
2022/01/10 12:16:50;;;;;;;7.82;5.88;;;10.10;99.90;;;;;;5122477;27;20042;-95
2022/01/10 12:19:17;;;;;;;9.32;6.47;;;10.00;99.90;;;;;;5123070;27;20073;-93
2022/01/10 12:21:46;;;;;;;8.02;6.18;;;10.00;99.90;;;;;;5124018;27;20047;-95
2022/01/10 12:24:13;;;;;;;9.75;6.50;;;10.40;99.90;;;;;;5120903;27;20054;-93
2022/01/10 12:26:42;;;;;;;7.03;5.63;;;10.20;99.90;;;;;;5120868;27;20121;-93
2022/01/10 12:29:11;;;;;;;8.85;6.25;;;10.30;99.90;;;;;;5135439;27;20170;-92
2022/01/10 12:31:39;;;;;;;11.10;5.80;;;10.30;99.90;;;;;;5121073;27;20075;-96
2022/01/10 12:34:08;;;;;;;10.73;6.68;;;10.30;99.90;;;;;;5120001;27;20042;-96
2022/01/10 12:36:36;;;;;;;6.75;5.45;;;10.40;99.90;;;;;;5124595;27;20086;-92
2022/01/10 12:39:15;;;;;;;7.82;6.15;;;10.40;99.90;;;;;;5121389;27;20409;-91
2022/01/10 12:41:45;;;;;;;9.40;6.78;;;10.40;99.90;;;;;;5121850;27;20055;-92
2022/01/10 12:44:10;;;;;;;14.40;6.18;;;10.40;99.90;;;;;;5117229;27;20496;-90
2022/01/10 12:46:56;;;;;;;8.17;6.03;;;10.40;99.90;;;;;;5119915;27;20098;-90
2022/01/10 12:49:39;;;;;;;8.18;5.70;;;10.40;99.90;;;;;;5135960;27;20051;-92
2022/01/10 12:56:06;;;;;;;10.48;5.40;;;10.50;99.90;;;;;;5107462;27;20051;-92
2022/01/10 12:58:35;;;;;;;13.75;6.55;;;10.30;99.90;;;;;;5100503;27;20066;-92
2022/01/10 13:01:14;;;;;;;7.65;5.80;;;10.40;99.90;;;;;;5134675;27;20043;-92
2022/01/10 13:03:49;;;;;;;12.07;6.05;;;10.60;99.90;;;;;;5100783;27;20066;-92
2022/01/10 13:06:19;;;;;;;10.23;6.38;;;10.40;99.90;;;;;;5103546;27;20034;-92
2022/01/10 13:08:47;;;;;;;8.63;5.95;;;10.60;99.90;;;;;;5119416;27;20035;-93
2022/01/10 13:11:20;;;;;;;7.47;5.05;;;10.30;99.90;;;;;;5105186;27;20054;-92